sensor_id;sensor_type;location;lat;lon;timestamp;P1;P2;P0
76049;PMS7003;64967;50.234;19.224;2023-07-31T16:31:34;1.00;1.00;1.00
76049;PMS7003;64967;50.234;19.224;2023-07-31T16:34:16;0.00;0.00;0.00
76049;PMS7003;64967;50.234;19.224;2023-07-31T16:36:43;1.00;1.00;0.00
76049;PMS7003;64967;50.234;19.224;2023-07-31T16:39:10;1.00;0.00;0.00
76049;PMS7003;64967;50.234;19.224;2023-07-31T16:41:38;0.00;0.00;0.00
76049;PMS7003;64967;50.234;19.224;2023-07-31T16:44:05;0.00;0.00;0.00
76049;PMS7003;64967;50.234;19.224;2023-07-31T16:46:33;0.00;0.00;0.00
76049;PMS7003;64967;50.234;19.224;2023-07-31T16:49:03;0.67;0.00;0.00
76049;PMS7003;64967;50.234;19.224;2023-07-31T16:51:33;0.00;0.00;0.00
76049;PMS7003;64967;50.234;19.224;2023-07-31T16:54:01;0.00;0.00;0.00
76049;PMS7003;64967;50.234;19.224;2023-07-31T16:56:29;0.00;0.00;0.00
76049;PMS7003;64967;50.234;19.224;2023-07-31T16:59:19;0.00;0.00;0.00
76049;PMS7003;64967;50.234;19.224;2023-07-31T17:01:46;1.00;1.00;1.00
76049;PMS7003;64967;50.234;19.224;2023-07-31T17:04:14;2.00;1.00;1.00
76049;PMS7003;64967;50.234;19.224;2023-07-31T17:06:42;1.00;1.00;1.00
76049;PMS7003;64967;50.234;19.224;2023-07-31T17:09:09;0.67;0.67;0.67
76049;PMS7003;64967;50.234;19.224;2023-07-31T17:11:37;2.67;1.00;0.33
76049;PMS7003;64967;50.234;19.224;2023-07-31T17:14:05;0.00;0.00;0.00
76049;PMS7003;64967;50.234;19.224;2023-07-31T17:16:35;0.00;0.00;0.00
76049;PMS7003;64967;50.234;19.224;2023-07-31T17:19:02;1.00;1.00;0.67
76049;PMS7003;64967;50.234;19.224;2023-07-31T17:21:29;1.00;0.00;0.00
76049;PMS7003;64967;50.234;19.224;2023-07-31T17:23:57;1.00;0.00;0.00
76049;PMS7003;64967;50.234;19.224;2023-07-31T17:26:27;1.00;1.00;0.67
76049;PMS7003;64967;50.234;19.224;2023-07-31T17:29:14;0.33;0.00;0.00
76049;PMS7003;64967;50.234;19.224;2023-07-31T17:31:59;0.00;0.00;0.00
76049;PMS7003;64967;50.234;19.224;2023-07-31T17:34:51;0.67;0.67;0.00
76049;PMS7003;64967;50.234;19.224;2023-07-31T17:37:41;0.00;0.00;0.00
76049;PMS7003;64967;50.234;19.224;2023-07-31T17:40:28;1.00;0.00;0.00
76049;PMS7003;64967;50.234;19.224;2023-07-31T17:43:10;0.00;0.00;0.00
76049;PMS7003;64967;50.234;19.224;2023-07-31T17:45:57;0.33;0.33;0.00
76049;PMS7003;64967;50.234;19.224;2023-07-31T17:48:44;0.00;0.00;0.00
76049;PMS7003;64967;50.234;19.224;2023-07-31T17:51:30;0.00;0.00;0.00
76049;PMS7003;64967;50.234;19.224;2023-07-31T17:54:15;0.00;0.00;0.00
76049;PMS7003;64967;50.234;19.224;2023-07-31T17:56:42;0.33;0.33;0.00
76049;PMS7003;64967;50.234;19.224;2023-07-31T17:59:09;0.00;0.00;0.00
76049;PMS7003;64967;50.234;19.224;2023-07-31T18:01:37;0.00;0.00;0.00
76049;PMS7003;64967;50.234;19.224;2023-07-31T18:04:04;0.00;0.00;0.00
76049;PMS7003;64967;50.234;19.224;2023-07-31T18:06:32;0.00;0.00;0.00
76049;PMS7003;64967;50.234;19.224;2023-07-31T18:09:01;0.00;0.00;0.00
76049;PMS7003;64967;50.234;19.224;2023-07-31T18:11:30;0.00;0.00;0.00
76049;PMS7003;64967;50.234;19.224;2023-07-31T18:13:58;1.00;0.00;0.00
76049;PMS7003;64967;50.234;19.224;2023-07-31T18:16:25;0.00;0.00;0.00
76049;PMS7003;64967;50.234;19.224;2023-07-31T18:18:53;0.00;0.00;0.00
76049;PMS7003;64967;50.234;19.224;2023-07-31T18:21:20;0.00;0.00;0.00
76049;PMS7003;64967;50.234;19.224;2023-07-31T18:23:47;0.00;0.00;0.00
76049;PMS7003;64967;50.234;19.224;2023-07-31T18:26:14;0.00;0.00;0.00
76049;PMS7003;64967;50.234;19.224;2023-07-31T18:28:41;0.00;0.00;0.00
76049;PMS7003;64967;50.234;19.224;2023-07-31T18:31:08;0.67;0.67;0.00
76049;PMS7003;64967;50.234;19.224;2023-07-31T18:33:36;3.67;3.67;3.33
76049;PMS7003;64967;50.234;19.224;2023-07-31T18:36:04;1.00;1.00;1.00
76049;PMS7003;64967;50.234;19.224;2023-07-31T18:38:32;0.00;0.00;0.00
76049;PMS7003;64967;50.234;19.224;2023-07-31T18:40:59;0.67;0.67;0.67
76049;PMS7003;64967;50.234;19.224;2023-07-31T18:43:26;1.00;1.00;1.00
76049;PMS7003;64967;50.234;19.224;2023-07-31T18:45:53;0.67;0.67;0.00
76049;PMS7003;64967;50.234;19.224;2023-07-31T18:48:20;1.33;1.33;1.00
76049;PMS7003;64967;50.234;19.224;2023-07-31T18:50:48;1.67;1.67;1.67
76049;PMS7003;64967;50.234;19.224;2023-07-31T18:53:17;3.00;2.67;2.33
76049;PMS7003;64967;50.234;19.224;2023-07-31T18:55:45;3.00;3.00;2.67
76049;PMS7003;64967;50.234;19.224;2023-07-31T18:58:12;12.67;11.00;9.33
76049;PMS7003;64967;50.234;19.224;2023-07-31T19:00:39;16.00;15.67;12.33
76049;PMS7003;64967;50.234;19.224;2023-07-31T19:03:06;15.33;14.67;11.33
76049;PMS7003;64967;50.234;19.224;2023-07-31T19:05:34;20.67;19.67;15.33
76049;PMS7003;64967;50.234;19.224;2023-07-31T19:08:01;20.25;19.50;15.00
76049;PMS7003;64967;50.234;19.224;2023-07-31T19:10:32;22.50;20.75;15.75
76049;PMS7003;64967;50.234;19.224;2023-07-31T19:13:01;20.50;19.75;16.00
76049;PMS7003;64967;50.234;19.224;2023-07-31T19:15:28;20.25;18.75;14.75
76049;PMS7003;64967;50.234;19.224;2023-07-31T19:17:55;19.00;18.00;15.00
76049;PMS7003;64967;50.234;19.224;2023-07-31T19:20:22;16.25;14.75;10.00
76049;PMS7003;64967;50.234;19.224;2023-07-31T19:22:49;13.33;13.33;11.00
76049;PMS7003;64967;50.234;19.224;2023-07-31T19:25:16;14.00;14.00;11.00
76049;PMS7003;64967;50.234;19.224;2023-07-31T19:27:43;13.00;12.00;9.00
76049;PMS7003;64967;50.234;19.224;2023-07-31T19:30:12;10.33;10.33;8.00
76049;PMS7003;64967;50.234;19.224;2023-07-31T19:32:39;10.00;10.00;8.00
76049;PMS7003;64967;50.234;19.224;2023-07-31T19:35:06;11.00;10.00;8.67
76049;PMS7003;64967;50.234;19.224;2023-07-31T19:37:33;11.67;10.00;8.00
76049;PMS7003;64967;50.234;19.224;2023-07-31T19:40:01;9.33;8.33;6.33
76049;PMS7003;64967;50.234;19.224;2023-07-31T19:42:28;9.67;9.00;7.33
76049;PMS7003;64967;50.234;19.224;2023-07-31T19:44:55;12.33;11.33;9.33
76049;PMS7003;64967;50.234;19.224;2023-07-31T19:47:22;11.33;11.00;8.67
76049;PMS7003;64967;50.234;19.224;2023-07-31T19:49:49;15.00;15.00;11.00
76049;PMS7003;64967;50.234;19.224;2023-07-31T19:52:16;15.00;14.00;10.25
76049;PMS7003;64967;50.234;19.224;2023-07-31T19:54:43;17.50;16.50;13.25
76049;PMS7003;64967;50.234;19.224;2023-07-31T19:57:10;15.75;13.00;10.00
76049;PMS7003;64967;50.234;19.224;2023-07-31T19:59:37;17.00;13.25;10.50
76049;PMS7003;64967;50.234;19.224;2023-07-31T20:02:04;17.50;16.00;12.50
76049;PMS7003;64967;50.234;19.224;2023-07-31T20:04:32;14.75;12.25;9.00
76049;PMS7003;64967;50.234;19.224;2023-07-31T20:07:00;9.67;9.33;8.00
76049;PMS7003;64967;50.234;19.224;2023-07-31T20:09:27;9.00;8.67;7.00
76049;PMS7003;64967;50.234;19.224;2023-07-31T20:11:54;8.00;8.00;6.67
76049;PMS7003;64967;50.234;19.224;2023-07-31T20:14:22;9.00;7.33;6.00
76049;PMS7003;64967;50.234;19.224;2023-07-31T20:16:49;6.33;5.00;4.00
76049;PMS7003;64967;50.234;19.224;2023-07-31T20:19:16;6.67;5.67;4.00
76049;PMS7003;64967;50.234;19.224;2023-07-31T20:21:48;4.33;4.00;3.67
76049;PMS7003;64967;50.234;19.224;2023-07-31T20:24:15;8.00;6.67;5.33
76049;PMS7003;64967;50.234;19.224;2023-07-31T20:26:43;9.00;8.00;7.33
76049;PMS7003;64967;50.234;19.224;2023-07-31T20:29:10;9.00;8.00;6.00
76049;PMS7003;64967;50.234;19.224;2023-07-31T20:31:37;7.00;7.00;6.00
76049;PMS7003;64967;50.234;19.224;2023-07-31T20:34:06;4.00;4.00;4.00
76049;PMS7003;64967;50.234;19.224;2023-07-31T20:36:34;4.00;4.00;4.00
76049;PMS7003;64967;50.234;19.224;2023-07-31T20:39:02;3.33;3.33;2.67
76049;PMS7003;64967;50.234;19.224;2023-07-31T20:41:32;5.00;5.00;4.67
76049;PMS7003;64967;50.234;19.224;2023-07-31T20:43:59;3.33;2.00;2.00
76049;PMS7003;64967;50.234;19.224;2023-07-31T20:46:27;3.00;3.00;2.67
76049;PMS7003;64967;50.234;19.224;2023-07-31T20:48:54;2.67;2.67;2.00
76049;PMS7003;64967;50.234;19.224;2023-07-31T20:51:21;3.67;2.00;2.00
76049;PMS7003;64967;50.234;19.224;2023-07-31T20:53:48;2.00;2.00;2.00
76049;PMS7003;64967;50.234;19.224;2023-07-31T20:56:18;2.00;1.00;1.00
76049;PMS7003;64967;50.234;19.224;2023-07-31T20:58:46;1.00;1.00;1.00
76049;PMS7003;64967;50.234;19.224;2023-07-31T21:01:13;2.00;2.00;1.67
76049;PMS7003;64967;50.234;19.224;2023-07-31T21:03:40;1.00;1.00;1.00
76049;PMS7003;64967;50.234;19.224;2023-07-31T21:06:07;2.00;2.00;1.33
76049;PMS7003;64967;50.234;19.224;2023-07-31T21:08:35;1.00;1.00;1.00
